createdAt,value
2018-06-22T00:00:02.712Z,99185.42
2018-06-22T00:02:32.628Z,99190.18
2018-06-22T00:05:01.606Z,99180.30
2018-06-22T00:07:31.410Z,99186.46
2018-06-22T00:10:01.116Z,99180.30
2018-06-22T00:12:30.791Z,99183.49
2018-06-22T00:15:00.432Z,99187.28
2018-06-22T00:17:30.235Z,99188.09
2018-06-22T00:19:58.960Z,99185.48
2018-06-22T00:22:27.771Z,99186.56
2018-06-22T00:24:56.562Z,99190.34
2018-06-22T00:27:25.381Z,99187.67
2018-06-22T00:29:55.011Z,99187.97
2018-06-22T00:32:24.470Z,99186.11
2018-06-22T00:34:53.205Z,99191.81
2018-06-22T00:37:22.017Z,99186.98
2018-06-22T00:39:50.790Z,99188.91
2018-06-22T00:42:19.538Z,99192.11
2018-06-22T00:44:49.128Z,99189.27
2018-06-22T00:47:18.650Z,99191.75
2018-06-22T00:49:47.393Z,99191.66
2018-06-22T00:52:17.090Z,99186.98
2018-06-22T00:54:45.821Z,99178.37
2018-06-22T00:57:14.662Z,99175.41
2018-06-22T00:59:43.434Z,99174.78
2018-06-22T01:02:13.350Z,99172.50
2018-06-22T01:04:42.070Z,99172.22
2018-06-22T01:07:11.932Z,99165.23
2018-06-22T01:09:41.740Z,99163.34
2018-06-22T01:12:11.054Z,99162.46
2018-06-22T01:14:40.596Z,99158.97
2018-06-22T01:17:09.891Z,99163.80
2018-06-22T01:19:38.634Z,99156.59
2018-06-22T01:22:07.411Z,99148.86
2018-06-22T01:24:36.230Z,99153.91
2018-06-22T01:27:05.034Z,99151.02
2018-06-22T01:29:34.123Z,99150.75
2018-06-22T01:32:04.423Z,99145.69
2018-06-22T01:34:33.571Z,99147.03
2018-06-22T01:37:03.079Z,99154.83
2018-06-22T01:39:32.133Z,99157.27
2018-06-22T01:42:00.995Z,99150.88
2018-06-22T01:44:30.687Z,99154.72
2018-06-22T01:47:01.679Z,99165.48
2018-06-22T01:49:30.685Z,99157.49
2018-06-22T01:52:00.274Z,99159.70
2018-06-22T01:54:29.027Z,99166.45
2018-06-22T01:56:57.809Z,99151.28
2018-06-22T01:59:26.642Z,99162.59
2018-06-22T02:01:56.158Z,99165.86
2018-06-22T02:04:25.509Z,99166.44
2018-06-22T02:06:54.891Z,99167.61
2018-06-22T02:09:23.700Z,99174.66
2018-06-22T02:11:52.900Z,99178.17
2018-06-22T02:14:22.542Z,99179.57
2018-06-22T02:16:52.076Z,99174.51
2018-06-22T02:19:20.873Z,99182.83
2018-06-22T02:21:49.622Z,99190.63
2018-06-22T02:24:18.681Z,99179.63
2018-06-22T02:26:47.402Z,99198.14
2018-06-22T02:29:16.329Z,99202.91
2018-06-22T02:31:45.960Z,99209.60
2018-06-22T02:34:15.103Z,99199.65
2018-06-22T02:36:43.855Z,99203.08
2018-06-22T02:39:13.365Z,99219.89
2018-06-22T02:41:42.132Z,99220.97
2018-06-22T02:44:11.908Z,99225.51
2018-06-22T02:46:40.725Z,99217.13
2018-06-22T02:49:10.296Z,99232.59
2018-06-22T02:51:39.768Z,99231.19
2018-06-22T02:54:08.975Z,99244.58
2018-06-22T02:56:37.810Z,99239.75
2018-06-22T02:59:06.639Z,99242.36
2018-06-22T03:01:35.378Z,99236.97
2018-06-22T03:04:05.377Z,99282.10
2018-06-22T03:06:34.977Z,99255.86
2018-06-22T03:09:04.994Z,99259.06
2018-06-22T03:11:34.556Z,99262.48
2018-06-22T03:14:04.285Z,99266.44
2018-06-22T03:16:33.990Z,99255.73
2018-06-22T03:19:03.142Z,99267.48
2018-06-22T03:21:32.118Z,99274.92
2018-06-22T03:24:01.211Z,99268.20
2018-06-22T03:26:30.297Z,99269.76
2018-06-22T03:28:59.161Z,99278.83
2018-06-22T03:31:28.718Z,99280.69
2018-06-22T03:33:58.268Z,99287.97
2018-06-22T03:36:27.743Z,99287.22
2018-06-22T03:38:56.466Z,99293.65
2018-06-22T03:41:25.214Z,99299.06
2018-06-22T03:43:54.588Z,99296.45
2018-06-22T03:46:23.436Z,99286.05
2018-06-22T03:48:53.154Z,99294.08
2018-06-22T03:51:22.974Z,99302.11
2018-06-22T03:53:51.839Z,99306.70
2018-06-22T03:56:20.627Z,99306.48
2018-06-22T03:58:49.378Z,99306.48
2018-06-22T04:01:18.869Z,99308.63
2018-06-22T04:03:48.518Z,99312.65
2018-06-22T04:06:18.630Z,99313.98
2018-06-22T04:08:47.418Z,99313.77
2018-06-22T04:11:16.752Z,99313.57
2018-06-22T04:13:46.767Z,99316.54
2018-06-22T04:16:16.416Z,99320.92
2018-06-22T04:18:45.924Z,99323.44
2018-06-22T04:21:14.682Z,99326.21
2018-06-22T04:23:43.451Z,99331.41
2018-06-22T04:26:12.584Z,99326.64
2018-06-22T04:28:41.346Z,99346.55
2018-06-22T04:31:11.591Z,99331.34
2018-06-22T04:33:41.164Z,99342.64
2018-06-22T04:36:10.127Z,99350.73
2018-06-22T04:38:38.916Z,99347.31
2018-06-22T04:41:07.735Z,99347.41
2018-06-22T04:43:37.577Z,99351.72
2018-06-22T04:46:06.618Z,99353.55
2018-06-22T04:48:35.966Z,99359.66
2018-06-22T04:51:06.011Z,99354.88
2018-06-22T04:53:34.795Z,99356.78
2018-06-22T04:56:05.387Z,99353.81
2018-06-22T04:58:35.107Z,99355.50
2018-06-22T05:01:04.025Z,99360.34
2018-06-22T05:03:33.961Z,99364.26
2018-06-22T05:06:04.083Z,99372.91
2018-06-22T05:08:33.104Z,99382.13
2018-06-22T05:11:02.153Z,99381.02
2018-06-22T05:13:31.557Z,99375.95
2018-06-22T05:16:01.022Z,99380.55
2018-06-22T05:18:29.850Z,99377.42
2018-06-22T05:20:58.632Z,99377.19
2018-06-22T05:23:27.384Z,99384.70
2018-06-22T05:25:56.133Z,99388.66
2018-06-22T05:28:24.956Z,99389.24
2018-06-22T05:30:53.790Z,99401.69
2018-06-22T05:33:23.389Z,99397.50
2018-06-22T05:35:52.482Z,99396.26
2018-06-22T05:38:21.373Z,99399.91
2018-06-22T05:40:50.253Z,99407.13
2018-06-22T05:43:20.094Z,99411.88
2018-06-22T05:46:19.657Z,99415.09
2018-06-22T05:48:49.156Z,99414.39
2018-06-22T05:51:19.006Z,99416.80
2018-06-22T05:53:47.743Z,99422.42
2018-06-22T05:56:17.695Z,99421.72
2018-06-22T05:58:46.568Z,99426.97
2018-06-22T06:01:15.341Z,99434.09
2018-06-22T06:03:45.046Z,99434.89
2018-06-22T06:06:14.672Z,99428.76
2018-06-22T06:08:43.426Z,99430.54
2018-06-22T06:11:13.502Z,99430.10
2018-06-22T06:13:42.200Z,99440.19
2018-06-22T06:16:11.883Z,99447.92
2018-06-22T06:18:40.656Z,99449.20
2018-06-22T06:21:09.423Z,99448.34
2018-06-22T06:23:38.174Z,99453.63
2018-06-22T06:26:07.048Z,99465.60
2018-06-22T06:28:35.875Z,99461.19
2018-06-22T06:31:04.780Z,99470.42
2018-06-22T06:33:34.518Z,99469.82
2018-06-22T06:36:03.514Z,99476.27
2018-06-22T06:38:32.583Z,99475.31
2018-06-22T06:41:02.594Z,99469.36
2018-06-22T06:43:32.430Z,99474.91
2018-06-22T06:46:01.376Z,99482.49
2018-06-22T06:48:31.034Z,99478.75
2018-06-22T06:50:59.962Z,99488.88
2018-06-22T06:53:30.054Z,99480.28
2018-06-22T06:55:59.610Z,99487.48
2018-06-22T06:58:28.415Z,99480.11
2018-06-22T07:00:58.066Z,99496.05
2018-06-22T07:03:27.874Z,99493.43
2018-06-22T07:06:27.903Z,99497.19
2018-06-22T07:08:56.640Z,99499.11
2018-06-22T07:11:26.130Z,99494.55
2018-06-22T07:13:55.641Z,99499.73
2018-06-22T07:16:25.018Z,99506.69
2018-06-22T07:18:53.840Z,99509.61
2018-06-22T07:21:22.771Z,99504.53
2018-06-22T07:23:51.544Z,99507.36
2018-06-22T07:26:20.250Z,99510.72
2018-06-22T07:28:49.238Z,99514.70
2018-06-22T07:31:18.951Z,99510.95
2018-06-22T07:33:48.142Z,99505.04
2018-06-22T07:36:17.131Z,99513.62
2018-06-22T07:38:45.906Z,99527.20
2018-06-22T07:41:14.714Z,99522.58
2018-06-22T07:43:44.658Z,99511.81
2018-06-22T07:46:13.383Z,99514.11
2018-06-22T07:48:43.095Z,99522.25
2018-06-22T07:51:12.634Z,99531.62
2018-06-22T07:53:41.450Z,99540.34
2018-06-22T07:56:11.414Z,99526.59
2018-06-22T07:58:40.189Z,99536.20
2018-06-22T08:01:09.741Z,99540.06
2018-06-22T08:03:39.120Z,99538.22
2018-06-22T08:06:08.672Z,99542.69
2018-06-22T08:08:37.659Z,99536.30
2018-06-22T08:11:07.248Z,99544.48
2018-06-22T08:13:36.020Z,99559.70
2018-06-22T08:16:05.651Z,99552.75
2018-06-22T08:18:34.563Z,99543.57
2018-06-22T08:21:03.430Z,99549.56
2018-06-22T08:23:32.463Z,99557.79
2018-06-22T08:26:01.443Z,99552.78
2018-06-22T08:28:30.510Z,99552.88
2018-06-22T08:30:59.532Z,99551.84
2018-06-22T08:33:29.110Z,99562.78
2018-06-22T08:35:57.946Z,99568.77
2018-06-22T08:38:26.675Z,99565.87
2018-06-22T08:40:55.454Z,99581.90
2018-06-22T08:43:25.299Z,99570.69
2018-06-22T08:45:55.293Z,99568.31
2018-06-22T08:48:25.118Z,99573.25
2018-06-22T08:50:53.852Z,99581.18
2018-06-22T08:53:23.374Z,99563.69
2018-06-22T08:55:53.083Z,99576.75
2018-06-22T08:58:21.855Z,99585.84
2018-06-22T09:00:50.614Z,99596.14
2018-06-22T09:03:19.887Z,99589.19
2018-06-22T09:05:49.377Z,99598.15
2018-06-22T09:08:18.134Z,99606.30
2018-06-22T09:10:46.867Z,99593.88
2018-06-22T09:13:16.403Z,99612.87
2018-06-22T09:15:45.791Z,99614.31
2018-06-22T09:18:14.618Z,99599.20
2018-06-22T09:20:43.374Z,99619.45
2018-06-22T09:23:12.138Z,99604.39
2018-06-22T09:25:41.770Z,99624.96
2018-06-22T09:28:10.608Z,99614.71
2018-06-22T09:30:39.414Z,99621.23
2018-06-22T09:33:09.027Z,99634.53
2018-06-22T09:35:37.771Z,99627.03
2018-06-22T09:38:06.504Z,99615.94
2018-06-22T09:40:35.295Z,99623.73
2018-06-22T09:43:05.750Z,99626.66
2018-06-22T09:45:35.207Z,99628.84
2018-06-22T09:48:05.128Z,99627.86
2018-06-22T09:50:34.058Z,99626.77
2018-06-22T09:53:04.322Z,99638.05
2018-06-22T09:55:33.990Z,99640.98
2018-06-22T09:58:03.543Z,99642.06
2018-06-22T10:00:33.334Z,99659.10
2018-06-22T10:03:03.920Z,99645.31
2018-06-22T10:05:34.051Z,99662.68
2018-06-22T10:08:04.152Z,99656.67
2018-06-22T10:10:35.182Z,99653.67
2018-06-22T10:13:04.637Z,99652.31
2018-06-22T10:15:34.234Z,99655.30
2018-06-22T10:18:03.852Z,99651.76
2018-06-22T10:20:33.359Z,99671.50
2018-06-22T10:23:04.342Z,99660.13
2018-06-22T10:25:33.406Z,99670.44
2018-06-22T10:28:02.555Z,99663.94
2018-06-22T10:30:32.489Z,99660.86
2018-06-22T10:33:02.296Z,99662.20
2018-06-22T10:35:31.534Z,99658.45
2018-06-22T10:38:00.481Z,99672.81
2018-06-22T10:40:29.909Z,99674.70
2018-06-22T10:43:00.016Z,99670.14
2018-06-22T10:45:28.854Z,99667.45
2018-06-22T10:47:58.286Z,99679.09
2018-06-22T10:50:27.123Z,99676.36
2018-06-22T10:52:56.688Z,99683.41
2018-06-22T10:55:26.395Z,99675.81
2018-06-22T10:57:55.236Z,99679.86
2018-06-22T11:00:24.061Z,99687.42
2018-06-22T11:02:53.975Z,99682.69
2018-06-22T11:05:23.220Z,99689.63
2018-06-22T11:07:51.994Z,99682.58
2018-06-22T11:10:20.719Z,99685.83
2018-06-22T11:12:50.193Z,99684.20
2018-06-22T11:15:19.557Z,99683.23
2018-06-22T11:17:48.896Z,99686.88
2018-06-22T11:20:17.631Z,99682.32
2018-06-22T11:22:46.780Z,99686.68
2018-06-22T11:25:15.559Z,99690.19
2018-06-22T11:27:44.318Z,99685.04
2018-06-22T11:30:13.326Z,99691.27
2018-06-22T11:32:42.831Z,99687.22
2018-06-22T11:35:11.548Z,99689.42
2018-06-22T11:37:40.306Z,99697.26
2018-06-22T11:40:09.414Z,99696.44
2018-06-22T11:42:38.773Z,99709.42
2018-06-22T11:45:07.588Z,99704.57
2018-06-22T11:47:37.182Z,99713.75
2018-06-22T11:50:06.066Z,99711.06
2018-06-22T11:52:36.434Z,99708.62
2018-06-22T11:55:05.685Z,99722.16
2018-06-22T11:57:35.474Z,99713.46
2018-06-22T12:00:04.411Z,99717.52
2018-06-22T12:02:33.430Z,99721.30
2018-06-22T12:05:02.655Z,99713.20
2018-06-22T12:07:33.242Z,99714.27
2018-06-22T12:10:02.439Z,99718.09
2018-06-22T12:12:32.078Z,99719.17
2018-06-22T12:15:02.037Z,99705.36
2018-06-22T12:17:32.163Z,99717.83
2018-06-22T12:20:01.579Z,99720.23
2018-06-22T12:22:30.654Z,99722.16
2018-06-22T12:24:59.515Z,99718.63
2018-06-22T12:27:28.362Z,99731.06
2018-06-22T12:29:57.841Z,99724.05
2018-06-22T12:32:28.014Z,99720.54
2018-06-22T12:34:56.809Z,99725.16
2018-06-22T12:37:25.638Z,99733.53
2018-06-22T12:39:55.102Z,99740.83
2018-06-22T12:42:24.762Z,99772.70
2018-06-22T12:44:53.542Z,99758.38
2018-06-22T12:47:23.262Z,99774.77
2018-06-22T12:49:52.003Z,99763.36
2018-06-22T12:52:21.511Z,99753.64
2018-06-22T12:54:50.279Z,99761.48
2018-06-22T12:57:19.749Z,99754.30
2018-06-22T12:59:48.693Z,99748.78
2018-06-22T13:02:17.881Z,99755.89
2018-06-22T13:04:46.666Z,99753.28
2018-06-22T13:07:16.321Z,99759.28
2018-06-22T13:09:45.135Z,99749.29
2018-06-22T13:12:15.228Z,99755.80
2018-06-22T13:14:44.833Z,99755.80
2018-06-22T13:17:14.207Z,99761.50
2018-06-22T13:19:42.977Z,99761.51
2018-06-22T13:22:11.693Z,99768.23
2018-06-22T13:25:43.190Z,99797.51
2018-06-22T13:28:12.340Z,99810.85
2018-06-22T13:30:41.176Z,99813.14
2018-06-22T13:33:10.895Z,99810.20
2018-06-22T13:35:40.375Z,99815.70
2018-06-22T13:38:09.134Z,99802.67
2018-06-22T13:40:37.892Z,99799.48
2018-06-22T13:43:07.361Z,99803.23
2018-06-22T13:45:36.175Z,99801.03
2018-06-22T13:48:05.706Z,99793.47
2018-06-22T13:50:34.554Z,99795.03
2018-06-22T13:53:04.085Z,99795.05
2018-06-22T13:55:33.694Z,99793.90
2018-06-22T13:58:03.290Z,99792.52
2018-06-22T14:00:33.115Z,99784.55
2018-06-22T14:03:02.166Z,99784.38
2018-06-22T14:05:37.010Z,99779.57
2018-06-22T14:08:06.137Z,99792.63
2018-06-22T14:10:34.942Z,99790.22
2018-06-22T14:13:05.627Z,99788.59
2018-06-22T14:15:35.113Z,99786.44
2018-06-22T14:18:04.059Z,99786.16
2018-06-22T14:20:33.042Z,99785.64
2018-06-22T14:23:02.098Z,99793.78
2018-06-22T14:25:30.962Z,99798.41
2018-06-22T14:28:00.902Z,99801.95
2018-06-22T14:30:29.869Z,99807.66
2018-06-22T14:32:59.487Z,99800.63
2018-06-22T14:35:29.039Z,99805.02
2018-06-22T14:37:57.865Z,99799.11
2018-06-22T14:40:26.599Z,99811.36
2018-06-22T14:42:56.559Z,99815.96
2018-06-22T14:45:25.386Z,99823.02
2018-06-22T14:47:55.082Z,99815.17
2018-06-22T14:50:23.820Z,99829.52
2018-06-22T14:52:53.311Z,99829.52
2018-06-22T14:55:27.814Z,99839.81
2018-06-22T14:58:02.719Z,99831.14
2018-06-22T15:00:36.760Z,99832.50
2018-06-22T15:03:10.812Z,99839.55
2018-06-22T15:05:45.707Z,99835.50
2018-06-22T15:08:18.565Z,99830.83
2018-06-22T15:10:47.448Z,99837.84
2018-06-22T15:13:17.635Z,99829.16
2018-06-22T15:15:47.424Z,99836.97
2018-06-22T15:18:16.203Z,99837.16
2018-06-22T15:20:44.978Z,99836.21
2018-06-22T15:23:13.804Z,99852.08
2018-06-22T15:25:42.547Z,99845.46
2018-06-22T15:28:11.453Z,99852.18
2018-06-22T15:30:41.348Z,99857.30
2018-06-22T15:34:15.390Z,99853.97
2018-06-22T15:36:49.339Z,99859.30
2018-06-22T15:39:23.339Z,99867.36
2018-06-22T15:41:57.223Z,99870.05
2018-06-22T15:44:32.024Z,99866.44
2018-06-22T15:47:07.790Z,99876.91
2018-06-22T15:49:41.805Z,99880.37
2018-06-22T15:52:17.364Z,99870.75
2018-06-22T15:55:05.997Z,99878.19
2018-06-22T15:57:35.695Z,99884.91
2018-06-22T16:00:06.312Z,99885.59
2018-06-22T16:02:40.322Z,99890.16
2018-06-22T16:05:09.114Z,99885.48
2018-06-22T16:07:39.122Z,99884.33
2018-06-22T16:10:07.915Z,99884.79
2018-06-22T16:12:40.502Z,99896.37
2018-06-22T16:17:23.943Z,99891.58
2018-06-22T16:19:58.286Z,99891.45
2018-06-22T16:22:32.351Z,99892.52
2018-06-22T16:25:06.200Z,99895.22
2018-06-22T16:27:39.031Z,99901.20
2018-06-22T16:30:09.790Z,99904.38
2018-06-22T16:32:39.546Z,99904.88
2018-06-22T16:35:09.467Z,99904.80
2018-06-22T16:37:38.312Z,99901.77
2018-06-22T16:40:07.099Z,99910.75
2018-06-22T16:42:36.404Z,99912.38
2018-06-22T16:45:05.209Z,99910.88
2018-06-22T16:47:35.021Z,99915.61
2018-06-22T16:50:04.039Z,99917.89
2018-06-22T16:52:34.362Z,99915.33
2018-06-22T16:55:04.523Z,99921.75
2018-06-22T16:57:34.126Z,99916.52
2018-06-22T17:00:03.138Z,99926.14
2018-06-22T17:02:32.106Z,99923.69
2018-06-22T17:05:01.087Z,99923.11
2018-06-22T17:07:35.703Z,99924.75
2018-06-22T17:10:09.902Z,99933.42
2018-06-22T17:12:44.612Z,99928.52
2018-06-22T17:15:20.175Z,99936.57
2018-06-22T17:17:54.071Z,99943.32
2018-06-22T17:20:22.932Z,99945.89
2018-06-22T17:22:51.749Z,99943.08
2018-06-22T17:25:20.602Z,99941.02
2018-06-22T17:27:50.127Z,99942.86
2018-06-22T17:30:18.937Z,99953.26
2018-06-22T17:32:48.314Z,99944.09
2018-06-22T17:35:18.611Z,99954.77
2018-06-22T17:37:47.452Z,99952.94
2018-06-22T17:40:16.199Z,99950.92
2018-06-22T17:42:46.071Z,99957.52
2018-06-22T17:45:14.852Z,99961.66
2018-06-22T17:47:44.375Z,99955.17
2018-06-22T17:50:18.213Z,99958.33
2018-06-22T17:52:48.081Z,99959.82
2018-06-22T17:55:17.600Z,99959.66
2018-06-22T17:57:46.410Z,99952.11
2018-06-22T18:00:20.257Z,99952.59
2018-06-22T18:02:54.209Z,99956.51
2018-06-22T18:05:29.007Z,99954.21
2018-06-22T18:07:57.824Z,99948.37
2018-06-22T18:10:31.717Z,99951.70
2018-06-22T18:13:02.423Z,99948.81
2018-06-22T18:15:32.711Z,99947.13
2018-06-22T18:18:02.473Z,99946.16
2018-06-22T18:20:32.537Z,99949.62
2018-06-22T18:23:01.499Z,99952.78
2018-06-22T18:25:31.178Z,99948.03
2018-06-22T18:27:59.995Z,99956.55
2018-06-22T18:30:28.842Z,99955.60
2018-06-22T18:32:58.862Z,99958.20
2018-06-22T18:35:27.902Z,99951.05
2018-06-22T18:37:56.751Z,99956.75
2018-06-22T18:40:25.585Z,99950.23
2018-06-22T18:42:55.055Z,99963.53
2018-06-22T18:45:23.799Z,99958.84
2018-06-22T18:47:53.234Z,99960.58
2018-06-22T18:50:21.990Z,99955.35
2018-06-22T18:52:58.515Z,99960.70
2018-06-22T18:55:33.332Z,99953.97
2018-06-22T18:58:07.826Z,99963.15
2018-06-22T19:00:41.828Z,99962.17
2018-06-22T19:03:15.677Z,99961.46
2018-06-22T19:05:45.315Z,99965.86
2018-06-22T19:08:14.045Z,99965.99
2018-06-22T19:10:43.097Z,99968.09
2018-06-22T19:13:12.529Z,99962.42
2018-06-22T19:15:41.996Z,99963.11
2018-06-22T19:18:10.767Z,99965.14
2018-06-22T19:20:39.541Z,99968.09
2018-06-22T19:23:09.064Z,99960.12
2018-06-22T19:25:37.822Z,99970.74
2018-06-22T19:28:06.874Z,99967.43
2018-06-22T19:30:35.640Z,99964.15
2018-06-22T19:33:05.400Z,99964.83
2018-06-22T19:35:34.327Z,99965.65
2018-06-22T19:38:04.162Z,99969.61
2018-06-22T19:40:34.198Z,99964.13
2018-06-22T19:43:03.874Z,99971.76
2018-06-22T19:45:37.726Z,99977.84
2018-06-22T19:48:12.247Z,99978.81
2018-06-22T19:50:46.043Z,99977.11
2018-06-22T19:53:20.583Z,99977.78
2018-06-22T19:55:50.158Z,99976.17
2018-06-22T19:58:19.618Z,99971.25
2018-06-22T20:00:48.419Z,99976.11
2018-06-22T20:03:17.274Z,99979.68
2018-06-22T20:05:47.025Z,99975.39
2018-06-22T20:08:15.766Z,99981.47
2018-06-22T20:10:45.447Z,99976.00
2018-06-22T20:13:14.162Z,99979.80
2018-06-22T20:15:43.903Z,99983.53
2018-06-22T20:18:12.713Z,99981.67
2018-06-22T20:20:42.636Z,99987.56
2018-06-22T20:23:11.400Z,99995.10
2018-06-22T20:25:45.158Z,99989.20
2018-06-22T20:28:14.545Z,99999.95
2018-06-22T20:30:44.386Z,99995.50
2018-06-22T20:33:14.172Z,100002.22
2018-06-22T20:35:48.108Z,99998.48
2018-06-22T20:38:22.119Z,100005.02
2018-06-22T20:40:56.415Z,99997.41
2018-06-22T20:43:31.254Z,100004.61
2018-06-22T20:46:00.399Z,99999.45
2018-06-22T20:48:35.158Z,100006.59
2018-06-22T20:51:04.326Z,100004.13
2018-06-22T20:53:34.295Z,100001.89
2018-06-22T20:56:04.152Z,100010.43
2018-06-22T20:58:33.889Z,100015.50
2018-06-22T21:01:03.946Z,100016.70
2018-06-22T21:03:33.436Z,100018.78
2018-06-22T21:06:05.739Z,100016.02
2018-06-22T21:08:34.734Z,100015.20
2018-06-22T21:11:04.587Z,100015.45
2018-06-22T21:13:34.403Z,100018.41
2018-06-22T21:16:04.815Z,100016.20
2018-06-22T21:18:35.364Z,100020.00
2018-06-22T21:21:10.498Z,100026.20
2018-06-22T21:23:39.310Z,100026.72
2018-06-22T21:26:08.058Z,100025.59
2018-06-22T21:28:42.753Z,100025.30
2018-06-22T21:31:17.666Z,100028.66
2018-06-22T21:33:51.416Z,100028.57
2018-06-22T21:36:25.346Z,100029.91
2018-06-22T21:38:57.401Z,100025.02
2018-06-22T21:41:26.297Z,100030.91
2018-06-22T21:43:56.040Z,100028.89
2018-06-22T21:46:24.950Z,100033.14
2018-06-22T21:48:54.706Z,100038.95
2018-06-22T21:51:24.146Z,100044.02
2018-06-22T21:53:53.023Z,100042.38
2018-06-22T21:56:23.220Z,100043.72
2018-06-22T21:58:52.640Z,100046.10
2018-06-22T22:01:21.729Z,100045.53
2018-06-22T22:03:50.483Z,100043.80
2018-06-22T22:06:20.199Z,100044.16
2018-06-22T22:08:48.977Z,100050.87
2018-06-22T22:11:18.644Z,100049.83
2018-06-22T22:13:48.468Z,100049.23
2018-06-22T22:16:17.791Z,100051.92
2018-06-22T22:18:46.578Z,100054.30
2018-06-22T22:21:15.420Z,100056.46
2018-06-22T22:23:44.189Z,100050.27
2018-06-22T22:26:12.989Z,100050.83
2018-06-22T22:28:41.842Z,100053.78
2018-06-22T22:31:10.880Z,100058.33
2018-06-22T22:33:40.472Z,100052.69
2018-06-22T22:36:09.282Z,100058.58
2018-06-22T22:38:38.147Z,100063.64
2018-06-22T22:41:06.944Z,100059.31
2018-06-22T22:43:36.764Z,100060.66
2018-06-22T22:46:05.662Z,100066.11
2018-06-22T22:48:35.213Z,100063.17
2018-06-22T22:51:04.347Z,100064.47
2018-06-22T22:53:34.423Z,100063.86
2018-06-22T22:56:04.241Z,100065.28
2018-06-22T22:58:33.741Z,100070.66
2018-06-22T23:01:03.051Z,100069.06
2018-06-22T23:03:31.805Z,100073.91
2018-06-22T23:06:01.072Z,100071.00
2018-06-22T23:08:29.812Z,100072.42
2018-06-22T23:10:59.580Z,100073.25
2018-06-22T23:13:29.384Z,100066.76
2018-06-22T23:16:00.238Z,100062.44
2018-06-22T23:18:29.172Z,100065.34
2018-06-22T23:20:58.001Z,100059.92
2018-06-22T23:23:34.945Z,100059.31
2018-06-22T23:26:04.579Z,100065.94
2018-06-22T23:28:33.570Z,100061.83
2018-06-22T23:31:03.992Z,100064.13
2018-06-22T23:33:34.306Z,100067.34
2018-06-22T23:36:04.040Z,100064.59
2018-06-22T23:38:33.608Z,100069.88
2018-06-22T23:41:03.327Z,100077.84
2018-06-22T23:43:34.410Z,100076.72
2018-06-22T23:46:04.033Z,100080.36
2018-06-22T23:48:33.823Z,100082.38
2018-06-22T23:51:02.840Z,100077.87
2018-06-22T23:53:33.443Z,100081.98
2018-06-22T23:56:03.159Z,100089.63
2018-06-22T23:58:33.179Z,100089.67
